Time;durP1;ratioP1;P1;durP2;ratioP2;P2;SDS_P1;SDS_P2;PMS_P1;PMS_P2;Temp;Humidity;BMP_temperature;BMP_pressure;BME280_temperature;BME280_humidity;BME280_pressure;Samples;Min_cycle;Max_cycle;Signal;HPM_P1;HPM_P2
2021/09/12 00:00:07;;;;;;;7.87;7.27;;;18.70;99.90;;;;;;5017452;28;20401;-85
2021/09/12 00:02:33;;;;;;;8.97;6.20;;;18.70;99.90;;;;;;5018509;28;20161;-84
2021/09/12 00:04:59;;;;;;;7.53;6.80;;;18.80;99.90;;;;;;5018497;28;20411;-85
2021/09/12 00:07:25;;;;;;;9.70;6.97;;;18.50;99.90;;;;;;5018279;28;20578;-85
2021/09/12 00:09:51;;;;;;;8.33;7.20;;;18.40;99.90;;;;;;5018518;28;20458;-85
2021/09/12 00:12:16;;;;;;;7.77;6.60;;;18.40;99.90;;;;;;5017900;28;20704;-84
2021/09/12 00:14:43;;;;;;;8.93;6.70;;;18.40;99.90;;;;;;5018073;28;20169;-85
2021/09/12 00:17:09;;;;;;;7.23;6.53;;;18.60;99.90;;;;;;5018059;28;20257;-85
2021/09/12 00:19:34;;;;;;;7.57;6.87;;;18.50;99.90;;;;;;5018111;28;20448;-85
2021/09/12 00:22:00;;;;;;;7.93;7.20;;;18.50;99.90;;;;;;5016815;28;20188;-84
2021/09/12 00:24:26;;;;;;;7.80;6.87;;;18.50;99.90;;;;;;5018676;28;20165;-85
2021/09/12 00:26:52;;;;;;;7.50;6.83;;;18.50;99.90;;;;;;5016828;28;20170;-84
2021/09/12 00:29:20;;;;;;;9.10;7.87;;;18.60;99.90;;;;;;5017882;28;20423;-85
2021/09/12 00:31:48;;;;;;;8.20;7.47;;;18.50;99.90;;;;;;5018457;28;20204;-84
2021/09/12 00:34:15;;;;;;;7.00;6.30;;;18.40;99.90;;;;;;5018757;28;20400;-84
2021/09/12 00:36:42;;;;;;;7.83;7.13;;;18.40;99.90;;;;;;5018595;28;20407;-84
2021/09/12 00:39:09;;;;;;;7.47;6.77;;;18.40;99.90;;;;;;5000376;28;20439;-85
2021/09/12 00:41:38;;;;;;;9.83;7.83;;;18.40;99.90;;;;;;5018029;28;20456;-83
2021/09/12 00:44:08;;;;;;;8.33;7.53;;;18.30;99.90;;;;;;5018181;28;20457;-85
2021/09/12 00:46:34;;;;;;;9.53;7.90;;;18.30;99.90;;;;;;5017816;28;20401;-85
2021/09/12 00:49:00;;;;;;;8.10;6.90;;;18.40;99.90;;;;;;5017769;28;20393;-85
2021/09/12 00:51:26;;;;;;;9.40;8.50;;;18.30;99.90;;;;;;5018098;28;20622;-85
2021/09/12 00:53:53;;;;;;;8.33;7.47;;;18.30;99.90;;;;;;5017865;28;20203;-85
2021/09/12 00:56:19;;;;;;;8.70;7.90;;;18.40;99.90;;;;;;5018256;28;20665;-85
2021/09/12 00:58:47;;;;;;;11.43;7.13;;;18.30;99.90;;;;;;5018409;28;20400;-85
2021/09/12 01:01:14;;;;;;;9.50;7.20;;;18.20;99.90;;;;;;5016798;28;20535;-85
2021/09/12 01:03:40;;;;;;;8.10;7.20;;;18.10;99.90;;;;;;5000349;28;20451;-85
2021/09/12 01:06:06;;;;;;;8.30;7.50;;;18.20;99.90;;;;;;5022503;28;20784;-85
2021/09/12 01:08:32;;;;;;;9.63;8.67;;;18.20;99.90;;;;;;5024809;28;20274;-85
2021/09/12 01:10:59;;;;;;;8.17;7.37;;;18.20;99.90;;;;;;5026689;28;20401;-84
2021/09/12 01:13:24;;;;;;;7.53;6.83;;;18.20;99.90;;;;;;5022604;28;20165;-85
2021/09/12 01:15:50;;;;;;;8.60;7.43;;;18.20;99.90;;;;;;5019416;28;20403;-85
2021/09/12 01:18:16;;;;;;;8.80;8.00;;;18.20;99.90;;;;;;5019873;28;20166;-85
2021/09/12 01:20:42;;;;;;;13.77;8.07;;;18.30;99.90;;;;;;5018910;28;20176;-85
2021/09/12 01:23:08;;;;;;;7.23;6.53;;;18.20;99.90;;;;;;5020001;28;20197;-85
2021/09/12 01:25:36;;;;;;;8.93;8.03;;;18.20;99.90;;;;;;5025152;28;20440;-84
2021/09/12 01:28:04;;;;;;;8.70;7.60;;;18.20;99.90;;;;;;5016829;28;20166;-85
2021/09/12 01:30:29;;;;;;;7.47;6.70;;;18.10;99.90;;;;;;5017673;28;20503;-85
2021/09/12 01:32:55;;;;;;;8.83;7.93;;;18.00;99.90;;;;;;5018009;28;20525;-85
2021/09/12 01:35:21;;;;;;;8.70;7.90;;;18.00;99.90;;;;;;5017388;28;20622;-84
2021/09/12 01:37:47;;;;;;;8.97;8.17;;;18.10;99.90;;;;;;5017777;28;20618;-84
2021/09/12 01:40:13;;;;;;;9.53;8.30;;;18.10;99.90;;;;;;5017452;28;20208;-84
2021/09/12 01:42:39;;;;;;;8.40;7.47;;;18.00;99.90;;;;;;5017566;28;20197;-85
2021/09/12 01:45:05;;;;;;;12.33;8.93;;;18.10;99.90;;;;;;5016889;28;20483;-83
2021/09/12 01:47:31;;;;;;;10.43;7.80;;;18.10;99.90;;;;;;5017719;28;20186;-85
2021/09/12 01:49:57;;;;;;;12.10;8.13;;;18.20;99.90;;;;;;5017570;28;20494;-85
2021/09/12 01:52:23;;;;;;;8.40;7.50;;;18.00;99.90;;;;;;5017847;28;20402;-84
2021/09/12 01:54:49;;;;;;;9.83;8.33;;;18.10;99.90;;;;;;5003740;28;20232;-85
2021/09/12 01:57:18;;;;;;;17.03;9.73;;;18.10;99.90;;;;;;5025117;28;20662;-84
2021/09/12 01:59:43;;;;;;;9.30;8.13;;;18.10;99.90;;;;;;5021574;28;20165;-85
2021/09/12 02:02:09;;;;;;;8.80;7.90;;;18.00;99.90;;;;;;5021058;28;20941;-85
2021/09/12 02:04:35;;;;;;;12.00;7.80;;;17.90;99.90;;;;;;5019320;28;20626;-85
2021/09/12 02:07:00;;;;;;;8.40;7.57;;;17.90;99.90;;;;;;5020051;28;20595;-84
2021/09/12 02:09:27;;;;;;;12.37;7.40;;;17.90;99.90;;;;;;5002523;28;20200;-84
2021/09/12 02:11:54;;;;;;;8.93;8.10;;;18.00;99.90;;;;;;5019319;28;20173;-85
2021/09/12 02:14:20;;;;;;;8.83;8.03;;;18.00;99.90;;;;;;5021831;28;20820;-85
2021/09/12 02:16:46;;;;;;;9.10;8.07;;;18.10;99.90;;;;;;5021047;28;20443;-85
2021/09/12 02:19:12;;;;;;;6.90;6.17;;;18.10;99.90;;;;;;5020989;28;20397;-84
2021/09/12 02:21:37;;;;;;;8.47;7.50;;;18.20;99.90;;;;;;5019779;28;20201;-85
2021/09/12 02:24:04;;;;;;;9.50;8.03;;;18.10;99.90;;;;;;5021918;28;20168;-85
2021/09/12 02:26:29;;;;;;;10.93;7.50;;;18.20;99.90;;;;;;5021162;28;20168;-85
2021/09/12 02:28:55;;;;;;;9.23;8.33;;;18.20;99.90;;;;;;5019606;28;20484;-85
2021/09/12 02:31:21;;;;;;;9.13;8.30;;;18.20;99.90;;;;;;5021063;28;20165;-84
2021/09/12 02:33:47;;;;;;;8.03;7.23;;;18.10;99.90;;;;;;5021106;28;20208;-84
2021/09/12 02:36:13;;;;;;;7.63;6.93;;;18.20;99.90;;;;;;5020487;28;20224;-85
2021/09/12 02:38:38;;;;;;;8.03;7.33;;;18.40;99.90;;;;;;5020620;28;20165;-84
2021/09/12 02:41:04;;;;;;;8.20;7.37;;;18.00;99.90;;;;;;5019413;28;20179;-85
2021/09/12 02:43:30;;;;;;;7.40;6.70;;;17.90;99.90;;;;;;5021148;28;20162;-84
2021/09/12 02:45:57;;;;;;;8.17;7.40;;;17.80;99.90;;;;;;5019838;28;20193;-84
2021/09/12 02:48:23;;;;;;;7.13;6.43;;;17.80;99.90;;;;;;5020912;28;20205;-85
2021/09/12 02:50:49;;;;;;;9.50;7.00;;;17.90;99.90;;;;;;5020538;28;20404;-83
2021/09/12 02:53:15;;;;;;;9.13;8.20;;;17.90;99.90;;;;;;5018664;28;20411;-84
2021/09/12 02:55:40;;;;;;;14.17;7.37;;;17.80;99.90;;;;;;5019421;28;20228;-85
2021/09/12 02:58:06;;;;;;;9.47;8.50;;;17.90;99.90;;;;;;5019037;28;20185;-85
2021/09/12 03:00:32;;;;;;;9.83;6.73;;;17.90;99.90;;;;;;5019000;28;20173;-85
2021/09/12 03:02:58;;;;;;;8.10;7.50;;;17.90;99.90;;;;;;5019004;28;20200;-84
2021/09/12 03:05:25;;;;;;;12.70;7.57;;;18.00;99.90;;;;;;5019331;28;20184;-84
2021/09/12 03:07:50;;;;;;;8.50;7.43;;;17.90;99.90;;;;;;5018563;28;20165;-84
2021/09/12 03:10:16;;;;;;;7.37;6.77;;;18.00;99.90;;;;;;5018625;28;20400;-85
2021/09/12 03:12:42;;;;;;;14.77;7.80;;;17.90;99.90;;;;;;5018594;28;20197;-84
2021/09/12 03:15:11;;;;;;;9.60;7.90;;;17.80;99.90;;;;;;5017162;28;20252;-84
2021/09/12 03:17:37;;;;;;;8.17;6.90;;;17.70;99.90;;;;;;5018645;28;20176;-85
2021/09/12 03:20:04;;;;;;;8.50;6.53;;;17.60;99.90;;;;;;5018461;28;20757;-84
2021/09/12 03:22:29;;;;;;;9.30;7.63;;;17.60;99.90;;;;;;5019099;28;20288;-83
2021/09/12 03:24:55;;;;;;;10.67;8.73;;;17.40;99.90;;;;;;5019579;28;20482;-85
2021/09/12 03:27:21;;;;;;;13.10;9.60;;;17.40;99.90;;;;;;5018938;28;20256;-84
2021/09/12 03:29:47;;;;;;;8.70;7.77;;;17.40;99.90;;;;;;5019415;28;20215;-84
2021/09/12 03:32:13;;;;;;;11.00;9.40;;;17.40;99.90;;;;;;5018552;28;20170;-84
2021/09/12 03:34:38;;;;;;;10.10;8.30;;;17.30;99.90;;;;;;5018183;28;20169;-85
2021/09/12 03:37:05;;;;;;;17.80;9.67;;;17.20;99.90;;;;;;5018857;28;20169;-84
2021/09/12 03:39:30;;;;;;;9.17;8.27;;;17.10;99.90;;;;;;5019001;28;20168;-85
2021/09/12 03:41:56;;;;;;;12.93;8.87;;;17.00;99.90;;;;;;5018635;28;20444;-84
2021/09/12 03:44:22;;;;;;;10.73;8.97;;;17.00;99.90;;;;;;5019146;28;20165;-84
2021/09/12 03:46:48;;;;;;;15.73;9.07;;;16.90;99.90;;;;;;5019468;28;20161;-84
2021/09/12 03:49:14;;;;;;;9.83;8.70;;;16.90;99.90;;;;;;5018210;28;20169;-85
2021/09/12 03:51:39;;;;;;;10.13;9.20;;;16.90;99.90;;;;;;5017282;28;20169;-85
2021/09/12 03:54:05;;;;;;;10.00;8.00;;;16.80;99.90;;;;;;5018960;28;20217;-82
2021/09/12 03:56:31;;;;;;;11.40;9.30;;;16.80;99.90;;;;;;5018631;28;20180;-84
2021/09/12 03:58:57;;;;;;;9.17;7.93;;;16.80;99.90;;;;;;5019105;28;20165;-84
2021/09/12 04:01:22;;;;;;;9.37;8.47;;;16.70;99.90;;;;;;5018566;28;20254;-84
2021/09/12 04:03:48;;;;;;;11.23;8.57;;;16.90;99.90;;;;;;5018994;28;20169;-84
2021/09/12 04:06:14;;;;;;;8.20;7.40;;;16.80;99.90;;;;;;5019098;28;20197;-84
2021/09/12 04:08:40;;;;;;;8.47;7.57;;;16.80;99.90;;;;;;5018607;28;20212;-85
2021/09/12 04:11:06;;;;;;;8.70;7.90;;;16.80;99.90;;;;;;5018667;28;20162;-84
2021/09/12 04:13:31;;;;;;;9.80;8.80;;;16.90;99.90;;;;;;5018679;28;20258;-84
2021/09/12 04:15:57;;;;;;;9.40;8.50;;;16.90;99.90;;;;;;5018046;28;20670;-85
2021/09/12 04:18:23;;;;;;;9.47;8.57;;;16.70;99.90;;;;;;5018926;28;20188;-85
2021/09/12 04:20:49;;;;;;;10.77;8.17;;;16.80;99.90;;;;;;5017849;28;20244;-85
2021/09/12 04:23:14;;;;;;;9.53;8.20;;;16.80;99.90;;;;;;5017355;28;20197;-84
2021/09/12 04:25:40;;;;;;;11.03;8.40;;;17.00;99.90;;;;;;5015296;28;20570;-84
2021/09/12 04:28:06;;;;;;;8.27;7.57;;;17.00;99.90;;;;;;5017048;28;20603;-84
2021/09/12 04:30:31;;;;;;;8.90;8.00;;;17.00;99.90;;;;;;5016954;28;20632;-84
2021/09/12 04:32:57;;;;;;;11.47;7.40;;;17.10;99.90;;;;;;5017080;28;20305;-84
2021/09/12 04:35:23;;;;;;;7.23;6.57;;;17.20;99.90;;;;;;5017286;28;20166;-85
2021/09/12 04:37:49;;;;;;;8.10;7.10;;;17.10;99.90;;;;;;5017719;28;20172;-84
2021/09/12 04:40:15;;;;;;;9.30;8.40;;;17.00;99.90;;;;;;5017802;28;20197;-85
2021/09/12 04:42:40;;;;;;;10.67;7.70;;;17.10;99.90;;;;;;5017605;28;20193;-84
2021/09/12 04:45:07;;;;;;;8.33;7.53;;;17.20;99.90;;;;;;5017206;28;20172;-85
2021/09/12 04:47:32;;;;;;;9.33;7.97;;;17.10;99.90;;;;;;5017760;28;20205;-84
2021/09/12 04:49:58;;;;;;;11.27;8.20;;;17.30;99.90;;;;;;5016786;28;20804;-84
2021/09/12 04:52:24;;;;;;;9.53;8.33;;;17.50;99.90;;;;;;5015893;28;20224;-84
2021/09/12 04:54:50;;;;;;;9.20;8.00;;;17.50;99.90;;;;;;5016715;28;20324;-85
2021/09/12 04:57:15;;;;;;;10.27;8.37;;;17.70;99.90;;;;;;5017566;28;20244;-84
2021/09/12 04:59:41;;;;;;;11.13;9.53;;;17.60;99.90;;;;;;5017142;28;20161;-84
2021/09/12 05:02:07;;;;;;;13.03;10.23;;;17.50;99.90;;;;;;5018078;28;20633;-85
2021/09/12 05:04:34;;;;;;;13.20;9.00;;;17.40;99.90;;;;;;5017660;28;20169;-83
2021/09/12 05:07:03;;;;;;;16.20;9.17;;;17.40;99.90;;;;;;5017047;28;20476;-85
2021/09/12 05:09:29;;;;;;;11.93;8.93;;;17.40;99.90;;;;;;5016782;28;20464;-85
2021/09/12 05:11:54;;;;;;;11.00;9.07;;;17.50;99.90;;;;;;5017779;28;20400;-85
2021/09/12 05:14:21;;;;;;;12.47;10.03;;;17.40;99.90;;;;;;5018724;28;20272;-85
2021/09/12 05:16:47;;;;;;;10.83;9.57;;;17.50;99.90;;;;;;5018054;28;20252;-84
2021/09/12 05:19:13;;;;;;;10.87;8.73;;;17.40;99.90;;;;;;5017680;28;20440;-84
2021/09/12 05:21:39;;;;;;;10.97;9.50;;;17.40;99.90;;;;;;5017156;28;20189;-84
2021/09/12 05:24:05;;;;;;;12.30;10.13;;;17.30;99.90;;;;;;5021734;28;20166;-85
2021/09/12 05:26:30;;;;;;;15.07;9.13;;;17.50;99.90;;;;;;5019067;28;20315;-84
2021/09/12 05:28:56;;;;;;;11.20;10.10;;;17.70;99.90;;;;;;5021351;28;20432;-85
2021/09/12 05:31:22;;;;;;;11.13;9.27;;;17.90;99.90;;;;;;5022180;28;20199;-84
2021/09/12 05:33:48;;;;;;;12.20;10.17;;;18.10;99.90;;;;;;5022230;28;20197;-84
2021/09/12 05:36:13;;;;;;;19.00;10.23;;;18.20;99.90;;;;;;5020916;28;20162;-85
2021/09/12 05:38:40;;;;;;;11.30;10.10;;;18.20;99.90;;;;;;5021425;28;20170;-84
2021/09/12 05:41:06;;;;;;;12.53;9.67;;;18.20;99.90;;;;;;5021170;28;20173;-85
2021/09/12 05:43:32;;;;;;;10.03;9.07;;;18.30;99.90;;;;;;5021030;28;20419;-84
2021/09/12 05:45:57;;;;;;;10.00;9.03;;;18.30;99.90;;;;;;5021298;28;20165;-84
2021/09/12 05:48:23;;;;;;;10.00;8.73;;;17.90;99.90;;;;;;5020437;28;20157;-85
2021/09/12 05:50:49;;;;;;;10.60;9.20;;;18.10;99.90;;;;;;5021231;28;20166;-84
2021/09/12 05:53:18;;;;;;;13.33;10.83;;;18.10;99.90;;;;;;5020789;28;20171;-85
2021/09/12 05:55:44;;;;;;;9.53;8.47;;;18.20;99.90;;;;;;5020169;28;20459;-85
2021/09/12 05:58:09;;;;;;;8.90;8.00;;;18.30;99.90;;;;;;5020523;28;20869;-84
2021/09/12 06:00:35;;;;;;;10.53;8.20;;;18.40;99.90;;;;;;5020690;28;20216;-85
2021/09/12 06:03:01;;;;;;;10.20;9.20;;;18.50;99.90;;;;;;5021101;28;20288;-85
2021/09/12 06:05:27;;;;;;;10.85;9.75;;;18.60;99.90;;;;;;5019822;28;20804;-85
2021/09/12 06:07:52;;;;;;;10.93;9.83;;;18.50;99.90;;;;;;5020453;28;20165;-84
2021/09/12 06:10:18;;;;;;;12.43;9.50;;;18.40;99.90;;;;;;5020116;28;20456;-85
2021/09/12 06:12:44;;;;;;;9.70;8.47;;;18.60;99.90;;;;;;5020662;28;20161;-85
2021/09/12 06:15:10;;;;;;;9.27;8.37;;;18.60;99.90;;;;;;5021281;28;20158;-85
2021/09/12 06:17:36;;;;;;;10.23;8.47;;;18.40;99.90;;;;;;5021263;28;20161;-84
2021/09/12 06:20:02;;;;;;;15.70;9.60;;;18.40;99.90;;;;;;5028902;28;20432;-84
2021/09/12 06:22:28;;;;;;;9.70;8.20;;;18.50;99.90;;;;;;5028961;28;20188;-84
2021/09/12 06:24:54;;;;;;;8.30;7.50;;;18.60;99.90;;;;;;5028905;28;20181;-84
2021/09/12 06:27:19;;;;;;;9.63;8.73;;;18.70;99.90;;;;;;5022216;28;20161;-84
2021/09/12 06:29:45;;;;;;;11.30;9.10;;;18.70;99.90;;;;;;5021903;28;20153;-84
2021/09/12 06:32:11;;;;;;;10.50;8.40;;;18.70;99.90;;;;;;5023932;28;20162;-82
2021/09/12 06:34:37;;;;;;;9.70;8.00;;;18.80;99.90;;;;;;5023399;28;20192;-84
2021/09/12 06:37:04;;;;;;;8.70;7.80;;;18.90;99.90;;;;;;5019475;28;20212;-84
2021/09/12 06:39:30;;;;;;;9.83;7.20;;;18.90;99.90;;;;;;5019766;28;20939;-84
2021/09/12 06:41:56;;;;;;;7.53;6.73;;;18.90;99.90;;;;;;5019588;28;20444;-84
2021/09/12 06:44:22;;;;;;;7.90;7.20;;;18.90;99.90;;;;;;5019653;28;20629;-84
2021/09/12 06:46:47;;;;;;;9.50;8.50;;;19.00;99.90;;;;;;5019619;28;20380;-83
2021/09/12 06:49:14;;;;;;;8.13;6.90;;;18.70;99.90;;;;;;5019328;28;20575;-83
2021/09/12 06:51:40;;;;;;;14.00;6.73;;;18.50;99.90;;;;;;5019643;28;20170;-84
2021/09/12 06:54:05;;;;;;;9.20;8.23;;;18.30;99.90;;;;;;5019862;28;20455;-84
2021/09/12 06:56:31;;;;;;;7.83;7.03;;;18.40;99.90;;;;;;5020767;28;20169;-84
2021/09/12 06:58:57;;;;;;;7.73;6.67;;;18.50;99.90;;;;;;5021075;28;20162;-84
2021/09/12 07:01:24;;;;;;;7.33;6.63;;;18.70;99.90;;;;;;5035859;28;20239;-84
2021/09/12 07:03:50;;;;;;;6.80;6.20;;;18.90;99.90;;;;;;5020420;28;20395;-85
2021/09/12 07:06:16;;;;;;;5.97;5.47;;;19.00;99.90;;;;;;5021953;28;20861;-84
2021/09/12 07:08:42;;;;;;;8.03;6.50;;;19.00;99.90;;;;;;5019557;28;20201;-84
2021/09/12 07:11:13;;;;;;;6.90;6.20;;;19.20;99.90;;;;;;5022074;28;20165;-84
2021/09/12 07:13:39;;;;;;;6.87;6.27;;;19.00;99.90;;;;;;5025031;28;20154;-83
2021/09/12 07:16:07;;;;;;;6.03;5.40;;;18.90;99.90;;;;;;5029534;28;20460;-84
2021/09/12 07:18:34;;;;;;;6.17;5.57;;;19.10;99.90;;;;;;5039495;28;20881;-84
2021/09/12 07:21:00;;;;;;;7.03;6.43;;;19.20;99.90;;;;;;5032416;28;20563;-85
2021/09/12 07:23:26;;;;;;;5.70;5.10;;;19.20;99.90;;;;;;5019726;28;20436;-85
2021/09/12 07:25:51;;;;;;;5.63;5.10;;;19.40;99.90;;;;;;5020766;28;20237;-85
2021/09/12 07:28:17;;;;;;;7.80;6.03;;;19.60;99.90;;;;;;5021639;28;20432;-85
2021/09/12 07:30:43;;;;;;;6.90;5.03;;;19.50;99.90;;;;;;5020228;28;20216;-85
2021/09/12 07:33:09;;;;;;;5.83;5.13;;;19.10;99.90;;;;;;5021104;28;20169;-85
2021/09/12 07:35:36;;;;;;;8.80;5.23;;;19.20;99.90;;;;;;5019508;28;20177;-85
2021/09/12 07:38:02;;;;;;;6.27;4.87;;;19.50;99.90;;;;;;5020976;28;20619;-85
2021/09/12 07:40:28;;;;;;;4.77;4.30;;;19.60;99.90;;;;;;5020536;28;20411;-84
2021/09/12 07:42:53;;;;;;;5.50;4.83;;;19.40;99.90;;;;;;5003324;28;20205;-84
2021/09/12 07:45:23;;;;;;;6.03;5.10;;;19.80;99.90;;;;;;5020865;28;20424;-84
2021/09/12 07:47:49;;;;;;;6.97;5.47;;;20.00;99.90;;;;;;5020854;28;20404;-84
2021/09/12 07:50:16;;;;;;;4.80;4.23;;;20.00;99.90;;;;;;5019927;28;20194;-84
2021/09/12 07:52:43;;;;;;;6.33;4.53;;;20.10;99.90;;;;;;5020326;28;20392;-84
2021/09/12 07:55:10;;;;;;;5.27;4.77;;;20.20;99.90;;;;;;5018561;28;20460;-84
2021/09/12 07:57:36;;;;;;;5.67;4.80;;;20.30;99.90;;;;;;5020923;28;20479;-84
2021/09/12 08:00:03;;;;;;;6.47;4.73;;;20.30;99.90;;;;;;5019826;28;20873;-83
2021/09/12 08:02:31;;;;;;;5.30;4.90;;;20.30;99.90;;;;;;5020379;28;20207;-84
2021/09/12 08:04:56;;;;;;;4.67;4.27;;;20.40;99.90;;;;;;5020219;28;20419;-83
2021/09/12 08:07:22;;;;;;;4.73;4.23;;;20.10;99.90;;;;;;5019769;28;20392;-84
2021/09/12 08:09:48;;;;;;;5.33;4.93;;;19.80;99.90;;;;;;5020557;28;20208;-84
2021/09/12 08:12:14;;;;;;;6.00;4.50;;;19.70;99.90;;;;;;5020641;28;20169;-84
2021/09/12 08:14:40;;;;;;;5.90;5.40;;;19.80;99.90;;;;;;5019179;28;20426;-84
2021/09/12 08:17:06;;;;;;;6.73;5.57;;;20.00;99.90;;;;;;5020740;28;20251;-84
2021/09/12 08:19:31;;;;;;;6.73;4.97;;;20.10;99.90;;;;;;5020801;28;20699;-83
2021/09/12 08:21:59;;;;;;;4.97;4.57;;;20.00;99.90;;;;;;5021166;28;20626;-83
2021/09/12 08:24:25;;;;;;;4.57;4.17;;;20.00;99.90;;;;;;5020852;28;20393;-84
2021/09/12 08:26:51;;;;;;;6.37;4.73;;;20.00;99.90;;;;;;5020549;28;20679;-84
2021/09/12 08:29:20;;;;;;;6.53;5.93;;;20.00;99.90;;;;;;5037351;28;20391;-85
2021/09/12 08:31:46;;;;;;;6.03;5.47;;;19.90;99.90;;;;;;5038480;28;20417;-83
2021/09/12 08:34:13;;;;;;;5.33;4.63;;;19.60;99.90;;;;;;5021677;28;20420;-85
2021/09/12 08:36:38;;;;;;;6.50;5.90;;;19.60;99.90;;;;;;5038104;28;20414;-85
2021/09/12 08:39:05;;;;;;;10.30;4.73;;;20.10;99.90;;;;;;5037868;28;20403;-85
2021/09/12 08:41:32;;;;;;;11.03;4.50;;;20.50;99.90;;;;;;5020903;28;20192;-85
2021/09/12 08:43:59;;;;;;;4.37;4.00;;;20.40;99.90;;;;;;5038064;28;20404;-84
2021/09/12 08:46:27;;;;;;;5.27;3.73;;;20.70;99.90;;;;;;5021920;28;20478;-84
2021/09/12 08:48:55;;;;;;;4.27;3.87;;;20.30;99.90;;;;;;5020704;28;20434;-84
2021/09/12 08:51:23;;;;;;;4.03;3.60;;;20.20;99.90;;;;;;5038059;28;20513;-84
2021/09/12 08:53:49;;;;;;;4.77;4.37;;;20.60;99.90;;;;;;5022054;28;20395;-85
2021/09/12 08:56:15;;;;;;;4.83;4.43;;;20.80;99.90;;;;;;5023468;28;20395;-85
2021/09/12 08:58:40;;;;;;;4.40;4.00;;;21.50;99.90;;;;;;4989237;28;20157;-84
2021/09/12 09:01:06;;;;;;;5.40;4.10;;;21.70;99.90;;;;;;5024025;28;20292;-84
2021/09/12 09:03:34;;;;;;;5.70;3.83;;;22.20;99.90;;;;;;5023721;28;20560;-84
2021/09/12 09:06:18;;;;;;;3.70;3.40;;;22.30;99.90;;;;;;5022698;28;20176;-84
2021/09/12 09:08:55;;;;;;;6.87;3.80;;;21.50;99.90;;;;;;5023559;28;20428;-82
2021/09/12 09:11:32;;;;;;;4.10;3.70;;;21.00;99.90;;;;;;5022660;28;20400;-84
2021/09/12 09:14:13;;;;;;;4.90;3.70;;;21.00;99.90;;;;;;5022407;28;20400;-84
2021/09/12 09:17:18;;;;;;;6.47;4.53;;;21.20;99.90;;;;;;5021530;28;20392;-84
2021/09/12 09:19:51;;;;;;;3.83;3.53;;;20.60;99.90;;;;;;5004457;28;20931;-84
2021/09/12 09:22:29;;;;;;;4.40;4.00;;;21.00;99.90;;;;;;4980567;28;20971;-84
2021/09/12 09:24:58;;;;;;;3.80;3.50;;;21.50;99.90;;;;;;4981652;28;20829;-84
2021/09/12 09:27:24;;;;;;;3.87;3.57;;;22.00;99.90;;;;;;4981378;28;20473;-85
2021/09/12 09:29:55;;;;;;;4.13;3.73;;;22.30;99.90;;;;;;4981932;28;20398;-84
2021/09/12 09:32:21;;;;;;;4.47;4.07;;;22.50;99.90;;;;;;4981998;28;20667;-84
2021/09/12 09:34:47;;;;;;;3.93;3.63;;;23.00;99.90;;;;;;4951164;28;20398;-84
2021/09/12 09:37:15;;;;;;;3.67;3.37;;;23.30;99.90;;;;;;4982799;28;20242;-84
2021/09/12 09:39:44;;;;;;;3.63;3.33;;;23.20;99.90;;;;;;4948958;28;20421;-84
2021/09/12 09:42:41;;;;;;;3.70;3.40;;;23.70;99.90;;;;;;4950155;28;20544;-84
2021/09/12 09:45:11;;;;;;;3.30;3.00;;;23.00;99.90;;;;;;4980464;28;20434;-85
2021/09/12 09:47:38;;;;;;;4.10;3.80;;;23.10;99.90;;;;;;4964698;28;20414;-84
2021/09/12 09:50:13;;;;;;;6.20;3.60;;;22.70;99.90;;;;;;4980680;28;20399;-84
2021/09/12 09:52:42;;;;;;;2.90;2.50;;;22.50;99.90;;;;;;4990360;28;20408;-85
2021/09/12 09:55:14;;;;;;;3.30;2.90;;;23.70;99.90;;;;;;5005037;28;20529;-85
2021/09/12 09:57:42;;;;;;;3.07;2.87;;;24.50;99.90;;;;;;5006291;28;20396;-84
2021/09/12 10:00:10;;;;;;;5.53;2.80;;;23.40;99.90;;;;;;5005390;28;20537;-85
2021/09/12 10:02:36;;;;;;;4.80;3.57;;;23.50;99.90;;;;;;5023593;28;20463;-85
2021/09/12 10:05:05;;;;;;;4.00;3.60;;;23.70;99.90;;;;;;5025581;28;20424;-85
2021/09/12 10:07:33;;;;;;;3.67;3.37;;;22.80;99.90;;;;;;5023664;28;20393;-85
2021/09/12 10:10:00;;;;;;;3.43;3.00;;;23.10;99.90;;;;;;5020653;28;20937;-86
2021/09/12 10:12:27;;;;;;;5.57;2.80;;;22.70;99.90;;;;;;5020943;28;20407;-85
2021/09/12 10:15:07;;;;;;;3.10;2.90;;;21.90;99.90;;;;;;5019373;28;20431;-84
2021/09/12 10:17:35;;;;;;;3.10;2.80;;;21.90;99.90;;;;;;5021604;28;20404;-85
2021/09/12 10:20:13;;;;;;;2.90;2.70;;;22.20;99.90;;;;;;5004154;28;20401;-85
2021/09/12 10:22:56;;;;;;;2.90;2.70;;;22.40;99.90;;;;;;5020882;28;20629;-85
2021/09/12 10:25:24;;;;;;;3.47;3.17;;;22.20;99.90;;;;;;5030194;28;20481;-85
2021/09/12 10:28:03;;;;;;;2.97;2.77;;;22.30;99.90;;;;;;5030097;28;20384;-85
2021/09/12 10:30:38;;;;;;;4.20;3.00;;;23.10;99.90;;;;;;5031495;28;20404;-85
2021/09/12 10:33:19;;;;;;;2.93;2.70;;;23.50;99.90;;;;;;5032483;28;20411;-85
2021/09/12 10:35:52;;;;;;;3.37;3.07;;;24.10;99.90;;;;;;5033373;28;20406;-85
2021/09/12 10:38:39;;;;;;;2.37;2.17;;;25.30;99.90;;;;;;5034028;28;20396;-85
2021/09/12 10:41:13;;;;;;;3.03;2.83;;;26.10;99.90;;;;;;5034916;28;20399;-83
2021/09/12 10:43:42;;;;;;;4.30;3.37;;;26.50;99.90;;;;;;5034940;28;20415;-85
2021/09/12 10:46:23;;;;;;;2.87;2.67;;;26.70;99.90;;;;;;5034806;28;20443;-84
2021/09/12 10:49:09;;;;;;;3.77;3.47;;;26.30;99.90;;;;;;5054153;28;20411;-83
2021/09/12 10:51:36;;;;;;;2.83;2.50;;;25.80;99.90;;;;;;5053034;28;20415;-85
2021/09/12 10:54:02;;;;;;;3.37;3.17;;;26.10;99.90;;;;;;5035010;28;20450;-85
2021/09/12 10:56:31;;;;;;;2.73;2.53;;;25.60;99.90;;;;;;5017061;28;20521;-85
2021/09/12 10:59:00;;;;;;;4.60;2.87;;;25.30;99.90;;;;;;5037530;28;20172;-83
2021/09/12 11:01:28;;;;;;;3.17;2.97;;;24.70;99.90;;;;;;5051843;28;20634;-85
2021/09/12 11:03:58;;;;;;;3.10;2.80;;;24.50;99.90;;;;;;5054421;28;20426;-85
2021/09/12 11:06:26;;;;;;;3.30;3.03;;;24.40;99.90;;;;;;5037027;28;20402;-83
2021/09/12 11:08:54;;;;;;;3.67;3.37;;;24.40;99.90;;;;;;5049301;28;20993;-85
2021/09/12 11:11:21;;;;;;;3.57;3.27;;;25.30;99.90;;;;;;5021966;28;20462;-85
2021/09/12 11:13:47;;;;;;;2.63;2.33;;;25.10;99.90;;;;;;5038052;28;20421;-85
2021/09/12 11:16:18;;;;;;;2.83;2.63;;;25.90;99.90;;;;;;5037055;28;20399;-85
2021/09/12 11:18:48;;;;;;;3.33;3.03;;;25.50;99.90;;;;;;5038059;28;20161;-85
2021/09/12 11:21:35;;;;;;;2.37;2.17;;;25.80;99.90;;;;;;5037432;28;20497;-85
2021/09/12 11:24:14;;;;;;;2.87;2.47;;;26.10;99.90;;;;;;5021113;28;20391;-85
2021/09/12 11:26:51;;;;;;;2.50;2.40;;;25.60;99.90;;;;;;5027521;28;20479;-85
2021/09/12 11:29:26;;;;;;;2.83;2.60;;;25.30;99.90;;;;;;5020936;28;20427;-85
2021/09/12 11:31:58;;;;;;;2.57;2.00;;;25.10;99.90;;;;;;5002379;28;20487;-85
2021/09/12 11:34:24;;;;;;;3.10;2.90;;;25.20;99.90;;;;;;5020209;28;20411;-85
2021/09/12 11:36:54;;;;;;;2.80;2.60;;;25.80;99.90;;;;;;5020543;28;20606;-87
2021/09/12 11:39:33;;;;;;;3.73;2.63;;;25.60;99.90;;;;;;5024328;28;20400;-83
2021/09/12 11:42:04;;;;;;;3.10;2.23;;;25.80;99.90;;;;;;5033782;28;20466;-84
2021/09/12 11:44:37;;;;;;;2.67;2.47;;;26.50;99.90;;;;;;5033205;28;20396;-83
2021/09/12 11:47:10;;;;;;;2.67;2.47;;;27.40;99.90;;;;;;5015961;28;20391;-84
2021/09/12 11:49:36;;;;;;;2.57;2.37;;;26.90;99.90;;;;;;5032945;28;20435;-85
2021/09/12 11:52:04;;;;;;;2.40;2.27;;;27.20;99.90;;;;;;5032375;28;20424;-86
2021/09/12 11:54:40;;;;;;;2.27;2.07;;;27.70;99.90;;;;;;5031735;28;20457;-83
2021/09/12 11:57:11;;;;;;;2.47;2.27;;;28.30;99.90;;;;;;5015582;28;20415;-85
2021/09/12 11:59:43;;;;;;;1.70;1.60;;;28.90;99.90;;;;;;5031708;28;20407;-85
2021/09/12 12:02:12;;;;;;;2.17;1.98;;;28.90;99.90;;;;;;5031044;28;20455;-85
2021/09/12 12:04:39;;;;;;;3.83;2.05;;;30.50;99.40;;;;;;5032578;28;20177;-86
2021/09/12 12:07:08;;;;;;;2.42;2.22;;;31.20;96.00;;;;;;5031999;28;20563;-85
2021/09/12 12:09:42;;;;;;;2.60;2.40;;;31.60;93.10;;;;;;5022694;28;20250;-85
2021/09/12 12:12:14;;;;;;;2.20;2.00;;;30.90;92.00;;;;;;5018931;28;20191;-85
2021/09/12 12:14:58;;;;;;;2.42;2.22;;;29.80;94.10;;;;;;5018986;28;20161;-86
2021/09/12 12:17:26;;;;;;;2.17;2.05;;;30.60;93.80;;;;;;5018859;28;20164;-86
2021/09/12 12:19:55;;;;;;;2.05;1.95;;;30.30;93.40;;;;;;5019096;28;20157;-86
2021/09/12 12:22:22;;;;;;;2.67;2.08;;;29.50;93.60;;;;;;5019393;28;20622;-86
2021/09/12 12:24:54;;;;;;;2.30;2.10;;;30.30;91.40;;;;;;5020095;28;20164;-86
2021/09/12 12:27:19;;;;;;;1.60;1.50;;;31.40;90.60;;;;;;5018116;28;20595;-86
2021/09/12 12:30:06;;;;;;;2.00;1.85;;;30.50;86.30;;;;;;5016533;28;20199;-86
2021/09/12 12:32:32;;;;;;;2.30;2.20;;;27.30;90.60;;;;;;4979804;28;20216;-86
2021/09/12 12:35:22;;;;;;;2.65;2.30;;;26.10;92.20;;;;;;4977145;28;20185;-85
2021/09/12 12:37:49;;;;;;;2.30;2.20;;;27.20;93.20;;;;;;4958350;29;20624;-85
2021/09/12 12:40:20;;;;;;;2.40;2.20;;;28.20;93.20;;;;;;4942781;29;20187;-85
2021/09/12 12:42:50;;;;;;;2.47;2.28;;;29.40;92.80;;;;;;4958374;29;20183;-85
2021/09/12 12:45:36;;;;;;;1.90;1.80;;;30.00;91.20;;;;;;4919742;29;20207;-86
2021/09/12 12:48:21;;;;;;;1.92;1.83;;;30.40;89.90;;;;;;4918975;29;20188;-85